Decoded Metar for LFJL (METZ in FRANCE) (IATA:ETZ) | Meteo·Mobile Aviation Weather
aviador You're here:

LFJL Decoded Metar

METZ in FRANCE
Report Time2020-02-22 22:00:00
UTC Time2020-02-22 22:19:46
Flight Rules ifr IFR
Wind210° at 14 kt
W.Decomp.*RWY 22: 13.8 kt HW 2.4 kt LCW
Visibility9999 m
Phenomena:Light Rain
Clouds:Broken 005 Hf
Expected CloudBase > 1,200 ft AGL from Temp-Dew spread
Ceiling500 ft
Temp09°C (ISA -4)
Dew Point06°C (82% RH)
AAT3.1°C
QNH1028 hPa
Density Alt-23 ft
Elevation866 ft
Report Wrong Elevation
Raw Report
LFJL 222200Z AUTO 21014KT 9999 -RA NSC 09/06 Q1028 TEMPO
22015G25KT BKN005 OVC010=

Extra information for LFJL:More info

Metar Taf Metar & Taf Last 4 Metars F.Rules Stats Wind Profile Meteogram Temp Stats Airport Information Weather charts Add Link Nearby VenuesMetar ALERT Operation Metar Decoded Social comments